createdAt,value
2022-09-20T03:55:16.159Z,3.20
2022-09-20T03:58:16.740Z,2.50
2022-09-20T04:00:49.578Z,2.53
2022-09-20T04:03:53.865Z,2.23
2022-09-20T04:06:48.576Z,2.60
2022-09-20T04:09:41.913Z,2.58
2022-09-20T04:12:17.468Z,2.60
2022-09-20T04:14:58.310Z,2.63
2022-09-20T04:17:32.158Z,2.83
2022-09-20T04:20:05.979Z,2.95
2022-09-20T04:22:32.925Z,2.45
2022-09-20T04:25:14.678Z,2.83
2022-09-20T04:27:48.088Z,2.75
2022-09-20T04:30:20.384Z,2.33
2022-09-20T04:33:15.395Z,2.70
2022-09-20T04:36:10.687Z,2.80
2022-09-20T04:38:37.422Z,2.72
2022-09-20T04:41:40.800Z,2.90
2022-09-20T04:44:27.903Z,3.07
2022-09-20T04:47:22.958Z,3.30
2022-09-20T04:50:12.538Z,3.45
2022-09-20T04:52:57.711Z,3.08
2022-09-20T04:55:44.790Z,3.17
2022-09-20T04:58:49.004Z,2.57
2022-09-20T05:01:33.868Z,3.20
2022-09-20T05:04:23.989Z,3.05
2022-09-20T05:07:12.180Z,2.90
2022-09-20T05:10:00.445Z,4.55
2022-09-20T05:12:36.280Z,2.90
2022-09-20T05:15:11.766Z,2.70
2022-09-20T05:17:59.607Z,3.22
2022-09-20T05:20:47.880Z,2.97
2022-09-20T05:23:29.461Z,2.90
2022-09-20T05:26:24.777Z,2.63
2022-09-20T05:29:02.604Z,2.70
2022-09-20T05:31:44.648Z,3.20
2022-09-20T05:34:25.655Z,2.80
2022-09-20T05:37:02.383Z,3.00
2022-09-20T05:39:51.604Z,2.40
2022-09-20T05:42:42.378Z,2.65
2022-09-20T05:45:48.461Z,2.72
2022-09-20T05:48:23.883Z,2.50
2022-09-20T05:51:03.751Z,2.90
2022-09-20T05:53:59.190Z,3.00
2022-09-20T05:56:52.887Z,2.67
2022-09-20T05:59:40.062Z,2.70
2022-09-20T06:02:36.520Z,2.85
2022-09-20T06:05:15.769Z,2.45
2022-09-20T06:07:42.149Z,2.30
2022-09-20T06:10:37.126Z,2.42
2022-09-20T06:13:22.188Z,2.20
2022-09-20T06:16:04.428Z,2.58
2022-09-20T06:18:56.922Z,2.30
2022-09-20T06:21:40.277Z,2.40
2022-09-20T06:24:18.700Z,2.40
2022-09-20T06:26:45.141Z,2.30
2022-09-20T06:29:14.074Z,2.72
2022-09-20T06:31:40.577Z,2.05
2022-09-20T06:34:11.302Z,2.30
2022-09-20T06:36:58.449Z,2.20
2022-09-20T06:40:10.469Z,2.42
2022-09-20T06:42:39.053Z,2.15
2022-09-20T06:45:05.770Z,2.15
2022-09-20T06:47:35.639Z,2.50
2022-09-20T06:50:06.375Z,2.35
2022-09-20T06:52:32.961Z,2.20
2022-09-20T06:54:59.696Z,2.40
2022-09-20T06:57:34.907Z,3.17
2022-09-20T07:00:02.293Z,2.43
2022-09-20T07:02:28.793Z,2.80
2022-09-20T07:04:57.070Z,2.70
2022-09-20T07:07:23.936Z,2.72
2022-09-20T07:09:51.167Z,3.15
2022-09-20T07:12:18.133Z,2.93
2022-09-20T07:14:44.589Z,2.50
2022-09-20T07:17:11.053Z,2.90
2022-09-20T07:19:37.530Z,2.90
2022-09-20T07:22:04.032Z,2.65
2022-09-20T07:24:32.220Z,2.77
2022-09-20T07:27:04.219Z,3.00
2022-09-20T07:29:31.563Z,2.40
2022-09-20T07:31:58.670Z,2.75
2022-09-20T07:34:25.615Z,2.03
2022-09-20T07:36:52.490Z,2.37
2022-09-20T07:39:19.093Z,2.40
2022-09-20T07:41:48.381Z,2.10
2022-09-20T07:44:22.157Z,2.90
2022-09-20T07:46:52.711Z,2.75
2022-09-20T07:49:19.261Z,2.03
2022-09-20T07:51:45.802Z,3.00
2022-09-20T07:54:12.228Z,2.35
2022-09-20T07:56:39.269Z,2.92
2022-09-20T07:59:06.326Z,2.60
2022-09-20T08:01:32.963Z,2.70
2022-09-20T08:03:59.623Z,2.67
2022-09-20T08:06:26.775Z,2.58
2022-09-20T08:08:53.336Z,2.80
2022-09-20T08:11:27.812Z,2.47
2022-09-20T08:14:10.016Z,2.27
2022-09-20T08:16:42.021Z,2.33
2022-09-20T08:19:09.296Z,1.75
2022-09-20T08:21:39.753Z,2.20
2022-09-20T08:24:06.376Z,2.10
2022-09-20T08:26:35.052Z,2.30
2022-09-20T08:29:01.631Z,2.50
2022-09-20T08:31:34.280Z,1.98
2022-09-20T08:34:03.865Z,2.10
2022-09-20T08:36:36.122Z,2.40
2022-09-20T08:41:56.753Z,2.20
2022-09-20T08:44:57.936Z,1.80
2022-09-20T08:47:29.775Z,1.90
2022-09-20T08:49:57.176Z,2.00
2022-09-20T08:52:39.401Z,2.10
2022-09-20T08:55:21.919Z,1.95
2022-09-20T08:57:53.306Z,2.20
2022-09-20T09:00:26.298Z,1.85
2022-09-20T09:02:58.132Z,2.00
2022-09-20T09:05:35.088Z,2.00
2022-09-20T09:08:16.343Z,1.95
2022-09-20T09:10:47.056Z,1.98
2022-09-20T09:13:20.799Z,2.10
2022-09-20T09:15:57.169Z,1.65
2022-09-20T09:18:34.778Z,1.97
2022-09-20T09:21:04.274Z,1.67
2022-09-20T09:23:40.983Z,1.60
2022-09-20T09:26:21.085Z,1.67
2022-09-20T09:28:48.410Z,1.83
2022-09-20T09:31:25.684Z,2.00
2022-09-20T09:33:52.462Z,1.58
2022-09-20T09:36:26.138Z,2.05
2022-09-20T09:39:23.110Z,1.77
2022-09-20T09:41:51.000Z,1.92
2022-09-20T09:44:30.327Z,2.20
2022-09-20T09:46:57.641Z,1.80
2022-09-20T09:49:34.098Z,1.92
2022-09-20T09:52:14.287Z,1.90
2022-09-20T09:54:42.189Z,1.67
2022-09-20T09:57:34.273Z,1.77
2022-09-20T10:00:19.450Z,1.70
2022-09-20T10:03:08.326Z,1.80
2022-09-20T10:06:12.562Z,1.90
2022-09-20T10:09:03.556Z,1.60
2022-09-20T10:11:48.738Z,1.77
2022-09-20T10:14:46.128Z,2.38
2022-09-20T10:17:23.383Z,1.70
2022-09-20T10:20:08.397Z,1.65
2022-09-20T10:23:06.787Z,1.90
2022-09-20T10:26:06.199Z,2.10
2022-09-20T10:28:57.416Z,1.70
2022-09-20T10:31:48.570Z,1.80
2022-09-20T10:34:32.952Z,1.58
2022-09-20T10:37:00.721Z,1.63
2022-09-20T10:39:30.248Z,1.60
2022-09-20T10:42:27.326Z,1.90
2022-09-20T10:46:03.385Z,1.80
2022-09-20T10:48:32.864Z,1.50
2022-09-20T10:50:59.243Z,1.38
2022-09-20T10:53:38.969Z,1.27
2022-09-20T10:56:15.238Z,1.40
2022-09-20T10:58:56.898Z,1.50
2022-09-20T11:01:45.078Z,1.77
2022-09-20T11:04:45.601Z,1.75
2022-09-20T11:07:12.138Z,1.83
2022-09-20T11:09:42.178Z,1.90
2022-09-20T11:12:21.808Z,1.55
2022-09-20T11:14:55.966Z,2.13
2022-09-20T11:17:24.844Z,2.00
2022-09-20T11:20:08.160Z,1.80
2022-09-20T11:22:40.104Z,1.83
2022-09-20T11:25:29.320Z,1.58
2022-09-20T11:28:20.479Z,1.80
2022-09-20T11:31:15.294Z,1.80
2022-09-20T11:33:55.189Z,1.73
2022-09-20T11:36:39.364Z,1.85
2022-09-20T11:39:11.295Z,2.08
2022-09-20T11:41:37.722Z,1.85
2022-09-20T11:44:12.462Z,2.08
2022-09-20T11:46:47.760Z,1.90
2022-09-20T11:49:18.936Z,1.67
2022-09-20T11:52:03.613Z,1.65
2022-09-20T11:54:55.741Z,1.30
2022-09-20T11:57:24.106Z,1.48
2022-09-20T11:59:57.406Z,1.40
2022-09-20T12:02:29.043Z,1.63
2022-09-20T12:04:56.550Z,1.50
2022-09-20T12:07:24.240Z,1.40
2022-09-20T12:09:59.402Z,1.20
2022-09-20T12:12:42.193Z,1.30
2022-09-20T12:15:31.654Z,1.10
2022-09-20T12:17:58.050Z,1.10
2022-09-20T12:20:38.622Z,1.25
2022-09-20T12:23:42.470Z,1.60
2022-09-20T12:26:20.462Z,1.33
2022-09-20T12:28:58.704Z,1.60
2022-09-20T12:31:26.137Z,1.70
2022-09-20T12:34:13.286Z,1.30
2022-09-20T12:36:59.976Z,1.35
2022-09-20T12:39:33.212Z,1.30
2022-09-20T12:42:00.997Z,1.40
2022-09-20T12:44:42.089Z,1.60
2022-09-20T12:47:11.512Z,1.27
2022-09-20T12:50:05.934Z,1.38
2022-09-20T12:52:50.729Z,1.40
2022-09-20T12:55:46.930Z,1.27
2022-09-20T12:58:13.295Z,1.75
2022-09-20T13:00:47.535Z,1.63
2022-09-20T13:03:28.436Z,1.70
2022-09-20T13:06:07.123Z,1.80
2022-09-20T13:08:42.751Z,1.60
2022-09-20T13:11:21.182Z,1.60
2022-09-20T13:13:57.583Z,1.35
2022-09-20T13:16:37.483Z,1.92
2022-09-20T13:19:15.312Z,1.40
2022-09-20T13:21:51.225Z,1.60
2022-09-20T13:24:19.102Z,1.40
2022-09-20T13:26:47.037Z,1.50
2022-09-20T13:29:40.732Z,1.70
2022-09-20T13:32:27.446Z,1.50
2022-09-20T13:35:12.029Z,1.73
2022-09-20T13:37:43.690Z,1.42
2022-09-20T13:40:39.911Z,1.50
2022-09-20T13:43:23.494Z,1.60
2022-09-20T13:45:55.003Z,1.63
2022-09-20T13:48:25.069Z,1.40
2022-09-20T13:50:53.766Z,1.60
2022-09-20T13:53:40.131Z,1.40
2022-09-20T13:56:37.474Z,1.48
2022-09-20T13:59:08.033Z,1.40
2022-09-20T14:01:35.458Z,1.33
2022-09-20T14:04:08.147Z,1.20
2022-09-20T14:06:35.577Z,1.00
2022-09-20T14:09:10.405Z,1.38
2022-09-20T14:11:38.464Z,1.30
2022-09-20T14:14:07.923Z,1.20
2022-09-20T14:16:46.687Z,1.35
2022-09-20T14:19:18.971Z,1.13
2022-09-20T14:21:45.825Z,1.38
2022-09-20T14:24:25.939Z,1.20
2022-09-20T14:27:18.244Z,0.80
2022-09-20T14:29:53.261Z,0.80
2022-09-20T14:32:19.686Z,1.05
2022-09-20T14:35:01.012Z,1.10
2022-09-20T14:37:29.796Z,0.90
2022-09-20T14:39:58.207Z,0.90
2022-09-20T14:42:42.904Z,1.15
2022-09-20T14:45:29.724Z,0.90
2022-09-20T14:47:57.993Z,1.00
2022-09-20T14:50:24.526Z,1.20
2022-09-20T14:53:01.154Z,1.00
2022-09-20T14:55:36.932Z,0.90
2022-09-20T14:58:09.757Z,0.80
2022-09-20T15:01:01.119Z,0.90
2022-09-20T15:03:30.973Z,1.10
2022-09-20T15:05:57.650Z,0.98
2022-09-20T15:08:24.085Z,1.10
2022-09-20T15:10:50.721Z,1.20
2022-09-20T15:13:18.101Z,1.20
2022-09-20T15:15:44.609Z,1.10
2022-09-20T15:18:26.354Z,1.30
2022-09-20T15:20:54.151Z,1.20
2022-09-20T15:23:21.246Z,1.45
2022-09-20T15:25:50.523Z,1.52
2022-09-20T15:28:17.268Z,1.27
2022-09-20T15:30:45.643Z,1.90
2022-09-20T15:33:12.769Z,1.50
2022-09-20T15:35:40.246Z,1.42
2022-09-20T15:38:08.962Z,1.60
2022-09-20T15:40:36.017Z,1.23
2022-09-20T15:43:02.532Z,1.23
2022-09-20T15:45:29.084Z,1.50
2022-09-20T15:47:57.656Z,1.20
2022-09-20T15:50:24.802Z,1.30
2022-09-20T15:52:51.980Z,1.47
2022-09-20T15:55:19.320Z,1.77
2022-09-20T15:57:46.225Z,1.58
2022-09-20T16:00:13.013Z,1.90
2022-09-20T16:02:39.421Z,1.60
2022-09-20T16:05:06.591Z,1.90
2022-09-20T16:07:33.005Z,2.17
2022-09-20T16:09:59.422Z,2.50
2022-09-20T16:12:25.975Z,2.00
2022-09-20T16:14:52.646Z,1.80
2022-09-20T16:17:39.209Z,1.67
2022-09-20T16:20:06.433Z,1.67
2022-09-20T16:22:34.047Z,1.80
2022-09-20T16:25:01.331Z,1.92
2022-09-20T16:27:27.744Z,2.25
2022-09-20T16:29:54.867Z,2.20
2022-09-20T16:32:21.514Z,2.40
2022-09-20T16:34:50.800Z,1.98
2022-09-20T16:37:17.223Z,2.13
2022-09-20T16:39:44.368Z,2.35
2022-09-20T16:42:12.336Z,2.63
2022-09-20T16:44:41.790Z,2.30
2022-09-20T16:47:11.762Z,2.03
2022-09-20T16:49:38.542Z,2.10
2022-09-20T16:52:06.254Z,2.20
2022-09-20T16:54:33.745Z,2.40
2022-09-20T16:57:00.455Z,2.13
2022-09-20T16:59:26.866Z,2.20
2022-09-20T17:01:53.295Z,2.25
2022-09-20T17:04:21.066Z,2.10
2022-09-20T17:06:48.657Z,2.50
2022-09-20T17:09:16.003Z,2.53
2022-09-20T17:11:47.858Z,2.35
2022-09-20T17:14:17.128Z,2.30
2022-09-20T17:16:47.494Z,2.65
2022-09-20T17:19:15.744Z,2.30
2022-09-20T17:21:45.626Z,2.55
2022-09-20T17:24:13.725Z,2.72
2022-09-20T17:26:41.908Z,2.33
2022-09-20T17:29:10.239Z,2.78
2022-09-20T17:31:39.110Z,2.60
2022-09-20T17:34:08.421Z,2.95
2022-09-20T17:36:40.642Z,2.60
2022-09-20T17:39:10.838Z,2.60
2022-09-20T17:41:37.897Z,2.20
2022-09-20T17:44:08.303Z,2.17
2022-09-20T17:46:37.099Z,2.30
2022-09-20T17:49:06.851Z,2.35
2022-09-20T17:51:38.939Z,2.10
2022-09-20T17:54:06.436Z,1.85
2022-09-20T17:56:33.368Z,1.90
2022-09-20T17:59:04.427Z,1.95
2022-09-20T18:01:32.738Z,2.10
2022-09-20T18:04:00.629Z,2.00
2022-09-20T18:06:29.185Z,2.20
2022-09-20T18:08:57.674Z,2.30
2022-09-20T18:11:28.747Z,2.03
2022-09-20T18:13:55.199Z,2.00
2022-09-20T18:16:21.802Z,2.30
2022-09-20T18:18:49.551Z,2.30
2022-09-20T18:21:18.300Z,2.47
2022-09-20T18:23:46.327Z,2.70
2022-09-20T18:26:23.493Z,2.53
2022-09-20T18:29:12.596Z,2.72
2022-09-20T18:31:57.879Z,2.70
2022-09-20T18:34:31.957Z,2.37
2022-09-20T18:37:00.251Z,2.38
2022-09-20T18:39:35.182Z,2.30
2022-09-20T18:42:03.178Z,2.75
2022-09-20T18:44:34.257Z,2.80
2022-09-20T18:47:03.238Z,2.40
2022-09-20T18:49:30.433Z,2.50
2022-09-20T18:51:57.117Z,2.40
2022-09-20T18:54:23.583Z,2.67
2022-09-20T18:56:50.858Z,2.22
2022-09-20T18:59:22.324Z,2.67
2022-09-20T19:01:54.993Z,2.60
2022-09-20T19:04:43.580Z,2.30
2022-09-20T19:07:25.028Z,2.60
2022-09-20T19:09:51.390Z,2.20
2022-09-20T19:12:23.318Z,2.37
2022-09-20T19:15:08.451Z,2.25
2022-09-20T19:18:13.604Z,2.38
2022-09-20T19:21:14.208Z,1.90
2022-09-20T19:24:06.753Z,2.10
2022-09-20T19:26:38.464Z,1.80
2022-09-20T19:29:17.583Z,2.42
2022-09-20T19:31:44.284Z,2.10
2022-09-20T19:34:19.125Z,2.38
2022-09-20T19:36:54.484Z,2.25
2022-09-20T19:39:39.849Z,2.30
2022-09-20T19:42:36.116Z,2.30
2022-09-20T19:45:16.328Z,2.30
2022-09-20T19:48:04.750Z,2.22
2022-09-20T19:50:33.125Z,2.65
2022-09-20T19:53:04.177Z,3.00
2022-09-20T19:55:34.969Z,2.80
2022-09-20T19:58:02.036Z,2.72
